sensor_id;sensor_type;location;lat;lon;timestamp;noise_LAeq;noise_LA_min;noise_LA_max;noise_LA01;noise_LA95
67308;Laerm;57662;51.436;5.978;2023-04-15T00:00:10;43.75;33.86;57.59;;
67308;Laerm;57662;51.436;5.978;2023-04-15T00:00:21;37.52;33.80;44.76;;
67308;Laerm;57662;51.436;5.978;2023-04-15T00:00:31;36.11;33.42;49.87;;
67308;Laerm;57662;51.436;5.978;2023-04-15T00:00:42;35.17;33.12;36.82;;
67308;Laerm;57662;51.436;5.978;2023-04-15T00:00:53;35.50;33.27;41.47;;
67308;Laerm;57662;51.436;5.978;2023-04-15T00:01:03;35.37;33.33;37.19;;
67308;Laerm;57662;51.436;5.978;2023-04-15T00:01:14;35.45;33.71;36.91;;
67308;Laerm;57662;51.436;5.978;2023-04-15T00:01:28;37.54;33.91;48.92;;
67308;Laerm;57662;51.436;5.978;2023-04-15T00:01:39;37.02;34.19;41.20;;
67308;Laerm;57662;51.436;5.978;2023-04-15T00:01:49;42.07;34.98;47.72;;
67308;Laerm;57662;51.436;5.978;2023-04-15T00:01:59;47.32;42.55;52.56;;
67308;Laerm;57662;51.436;5.978;2023-04-15T00:02:16;39.51;35.48;44.30;;
67308;Laerm;57662;51.436;5.978;2023-04-15T00:02:27;36.09;33.98;39.06;;
67308;Laerm;57662;51.436;5.978;2023-04-15T00:02:37;35.82;32.96;38.67;;
67308;Laerm;57662;51.436;5.978;2023-04-15T00:02:47;35.44;33.81;37.90;;
67308;Laerm;57662;51.436;5.978;2023-04-15T00:02:58;35.63;33.38;37.55;;
67308;Laerm;57662;51.436;5.978;2023-04-15T00:03:08;35.64;33.59;37.36;;
67308;Laerm;57662;51.436;5.978;2023-04-15T00:03:18;36.12;34.52;41.45;;
67308;Laerm;57662;51.436;5.978;2023-04-15T00:03:28;36.94;34.52;39.37;;
67308;Laerm;57662;51.436;5.978;2023-04-15T00:03:39;36.80;34.70;41.91;;
67308;Laerm;57662;51.436;5.978;2023-04-15T00:03:50;43.75;35.11;48.02;;
67308;Laerm;57662;51.436;5.978;2023-04-15T00:04:04;44.73;39.49;48.38;;
67308;Laerm;57662;51.436;5.978;2023-04-15T00:04:14;44.94;40.96;48.59;;
67308;Laerm;57662;51.436;5.978;2023-04-15T00:04:24;45.32;40.88;48.61;;
67308;Laerm;57662;51.436;5.978;2023-04-15T00:04:34;46.31;42.91;49.46;;
67308;Laerm;57662;51.436;5.978;2023-04-15T00:04:46;67.62;44.42;73.76;;
67308;Laerm;57662;51.436;5.978;2023-04-15T00:04:57;67.07;48.21;71.69;;
67308;Laerm;57662;51.436;5.978;2023-04-15T00:05:07;43.97;37.87;51.32;;
67308;Laerm;57662;51.436;5.978;2023-04-15T00:05:17;37.10;34.34;40.79;;
67308;Laerm;57662;51.436;5.978;2023-04-15T00:05:31;39.31;34.03;50.91;;
67308;Laerm;57662;51.436;5.978;2023-04-15T00:05:41;41.95;35.09;47.77;;
67308;Laerm;57662;51.436;5.978;2023-04-15T00:05:52;35.50;33.78;37.30;;
67308;Laerm;57662;51.436;5.978;2023-04-15T00:06:02;35.43;33.61;37.02;;
67308;Laerm;57662;51.436;5.978;2023-04-15T00:06:12;35.63;33.77;37.29;;
67308;Laerm;57662;51.436;5.978;2023-04-15T00:06:23;36.02;33.36;46.30;;
67308;Laerm;57662;51.436;5.978;2023-04-15T00:06:35;35.51;33.45;44.02;;
67308;Laerm;57662;51.436;5.978;2023-04-15T00:06:49;35.31;32.86;42.37;;
67308;Laerm;57662;51.436;5.978;2023-04-15T00:07:00;35.14;33.27;37.60;;
67308;Laerm;57662;51.436;5.978;2023-04-15T00:07:12;35.04;33.19;36.74;;
67308;Laerm;57662;51.436;5.978;2023-04-15T00:07:22;34.91;33.18;36.46;;
67308;Laerm;57662;51.436;5.978;2023-04-15T00:07:32;35.04;33.33;36.79;;
67308;Laerm;57662;51.436;5.978;2023-04-15T00:07:43;34.86;32.85;36.32;;
67308;Laerm;57662;51.436;5.978;2023-04-15T00:07:54;34.90;32.61;37.02;;
67308;Laerm;57662;51.436;5.978;2023-04-15T00:08:04;34.85;33.07;36.10;;
67308;Laerm;57662;51.436;5.978;2023-04-15T00:08:15;34.84;33.16;36.35;;
67308;Laerm;57662;51.436;5.978;2023-04-15T00:08:25;34.82;33.17;36.38;;
67308;Laerm;57662;51.436;5.978;2023-04-15T00:08:36;34.86;32.90;36.23;;
67308;Laerm;57662;51.436;5.978;2023-04-15T00:08:46;34.94;33.15;36.70;;
67308;Laerm;57662;51.436;5.978;2023-04-15T00:08:57;34.89;32.89;36.49;;
67308;Laerm;57662;51.436;5.978;2023-04-15T00:09:07;35.00;33.40;36.39;;
67308;Laerm;57662;51.436;5.978;2023-04-15T00:09:18;35.02;33.03;36.58;;
67308;Laerm;57662;51.436;5.978;2023-04-15T00:09:28;35.13;33.38;36.52;;
67308;Laerm;57662;51.436;5.978;2023-04-15T00:09:39;35.24;33.72;36.54;;
67308;Laerm;57662;51.436;5.978;2023-04-15T00:09:49;35.15;33.34;36.52;;
67308;Laerm;57662;51.436;5.978;2023-04-15T00:10:04;35.03;33.24;36.59;;
67308;Laerm;57662;51.436;5.978;2023-04-15T00:10:14;35.17;33.81;37.00;;
67308;Laerm;57662;51.436;5.978;2023-04-15T00:10:25;36.14;33.95;40.64;;
67308;Laerm;57662;51.436;5.978;2023-04-15T00:10:36;39.43;34.91;48.27;;
67308;Laerm;57662;51.436;5.978;2023-04-15T00:10:46;36.17;33.76;38.56;;
67308;Laerm;57662;51.436;5.978;2023-04-15T00:10:56;35.15;33.36;36.67;;
67308;Laerm;57662;51.436;5.978;2023-04-15T00:11:11;35.07;33.15;37.19;;
67308;Laerm;57662;51.436;5.978;2023-04-15T00:11:21;35.38;33.16;37.15;;
67308;Laerm;57662;51.436;5.978;2023-04-15T00:11:33;36.50;33.73;41.69;;
67308;Laerm;57662;51.436;5.978;2023-04-15T00:11:44;35.01;33.24;36.86;;
67308;Laerm;57662;51.436;5.978;2023-04-15T00:11:54;35.04;33.08;36.53;;
67308;Laerm;57662;51.436;5.978;2023-04-15T00:12:04;34.90;33.33;36.44;;
67308;Laerm;57662;51.436;5.978;2023-04-15T00:12:15;34.93;33.08;36.88;;
67308;Laerm;57662;51.436;5.978;2023-04-15T00:12:26;34.96;33.08;36.54;;
67308;Laerm;57662;51.436;5.978;2023-04-15T00:12:36;34.84;33.09;36.59;;
67308;Laerm;57662;51.436;5.978;2023-04-15T00:12:47;34.90;33.05;36.45;;
67308;Laerm;57662;51.436;5.978;2023-04-15T00:12:57;34.84;33.12;36.24;;
67308;Laerm;57662;51.436;5.978;2023-04-15T00:13:07;34.95;33.48;36.85;;
67308;Laerm;57662;51.436;5.978;2023-04-15T00:13:18;34.99;32.95;37.38;;
67308;Laerm;57662;51.436;5.978;2023-04-15T00:13:29;35.12;32.82;37.30;;
67308;Laerm;57662;51.436;5.978;2023-04-15T00:13:40;34.94;33.18;36.93;;
67308;Laerm;57662;51.436;5.978;2023-04-15T00:13:50;35.01;33.36;36.65;;
67308;Laerm;57662;51.436;5.978;2023-04-15T00:14:00;34.92;33.10;36.58;;
67308;Laerm;57662;51.436;5.978;2023-04-15T00:14:11;35.03;33.01;37.28;;
67308;Laerm;57662;51.436;5.978;2023-04-15T00:14:21;34.95;33.28;36.67;;
67308;Laerm;57662;51.436;5.978;2023-04-15T00:14:33;34.90;33.28;36.63;;
67308;Laerm;57662;51.436;5.978;2023-04-15T00:14:43;34.95;32.95;36.34;;
67308;Laerm;57662;51.436;5.978;2023-04-15T00:14:53;34.99;33.28;36.66;;
67308;Laerm;57662;51.436;5.978;2023-04-15T00:15:06;34.88;33.26;36.67;;
67308;Laerm;57662;51.436;5.978;2023-04-15T00:15:18;35.02;33.45;37.32;;
67308;Laerm;57662;51.436;5.978;2023-04-15T00:15:28;34.94;32.89;36.44;;
67308;Laerm;57662;51.436;5.978;2023-04-15T00:15:38;34.89;33.08;36.57;;
67308;Laerm;57662;51.436;5.978;2023-04-15T00:15:48;34.94;33.40;36.55;;
67308;Laerm;57662;51.436;5.978;2023-04-15T00:15:59;34.85;33.20;36.41;;
67308;Laerm;57662;51.436;5.978;2023-04-15T00:16:09;34.91;33.17;36.52;;
67308;Laerm;57662;51.436;5.978;2023-04-15T00:16:20;34.92;33.11;36.47;;
67308;Laerm;57662;51.436;5.978;2023-04-15T00:16:30;34.92;33.08;36.43;;
67308;Laerm;57662;51.436;5.978;2023-04-15T00:16:41;34.97;33.01;36.27;;
67308;Laerm;57662;51.436;5.978;2023-04-15T00:16:51;35.14;32.78;36.97;;
67308;Laerm;57662;51.436;5.978;2023-04-15T00:17:05;39.38;34.17;49.06;;
67308;Laerm;57662;51.436;5.978;2023-04-15T00:17:15;36.32;33.61;42.34;;
67308;Laerm;57662;51.436;5.978;2023-04-15T00:17:26;35.07;33.49;36.55;;
67308;Laerm;57662;51.436;5.978;2023-04-15T00:17:36;34.97;33.36;36.46;;
67308;Laerm;57662;51.436;5.978;2023-04-15T00:17:49;35.12;33.35;36.70;;
67308;Laerm;57662;51.436;5.978;2023-04-15T00:18:00;35.05;32.36;36.45;;
67308;Laerm;57662;51.436;5.978;2023-04-15T00:18:10;35.07;33.32;36.43;;
67308;Laerm;57662;51.436;5.978;2023-04-15T00:18:20;34.99;33.05;36.29;;
67308;Laerm;57662;51.436;5.978;2023-04-15T00:18:31;35.00;33.26;36.69;;
67308;Laerm;57662;51.436;5.978;2023-04-15T00:18:41;34.96;33.28;36.39;;
67308;Laerm;57662;51.436;5.978;2023-04-15T00:18:51;34.87;33.26;36.40;;
67308;Laerm;57662;51.436;5.978;2023-04-15T00:19:01;34.96;33.45;36.33;;
67308;Laerm;57662;51.436;5.978;2023-04-15T00:19:11;34.92;32.51;36.77;;
67308;Laerm;57662;51.436;5.978;2023-04-15T00:19:22;34.94;32.88;36.42;;
67308;Laerm;57662;51.436;5.978;2023-04-15T00:19:33;35.03;33.06;36.29;;
67308;Laerm;57662;51.436;5.978;2023-04-15T00:19:43;34.88;33.11;36.42;;
67308;Laerm;57662;51.436;5.978;2023-04-15T00:19:54;34.84;33.16;36.60;;
67308;Laerm;57662;51.436;5.978;2023-04-15T00:20:05;34.84;32.72;36.37;;
67308;Laerm;57662;51.436;5.978;2023-04-15T00:20:15;34.99;33.27;36.71;;
67308;Laerm;57662;51.436;5.978;2023-04-15T00:20:26;36.83;33.34;44.24;;
67308;Laerm;57662;51.436;5.978;2023-04-15T00:20:36;45.34;38.94;48.58;;
67308;Laerm;57662;51.436;5.978;2023-04-15T00:20:47;44.77;39.98;49.24;;
67308;Laerm;57662;51.436;5.978;2023-04-15T00:20:57;69.18;46.27;76.06;;
67308;Laerm;57662;51.436;5.978;2023-04-15T00:21:08;52.16;42.66;61.21;;
67308;Laerm;57662;51.436;5.978;2023-04-15T00:21:18;44.00;40.50;47.91;;
67308;Laerm;57662;51.436;5.978;2023-04-15T00:21:29;40.80;37.35;44.99;;
67308;Laerm;57662;51.436;5.978;2023-04-15T00:21:39;40.14;35.82;45.20;;
67308;Laerm;57662;51.436;5.978;2023-04-15T00:21:49;36.41;33.95;38.51;;
67308;Laerm;57662;51.436;5.978;2023-04-15T00:22:00;35.65;33.80;37.75;;
67308;Laerm;57662;51.436;5.978;2023-04-15T00:22:11;35.49;33.87;37.16;;
67308;Laerm;57662;51.436;5.978;2023-04-15T00:22:21;35.28;33.60;38.17;;
67308;Laerm;57662;51.436;5.978;2023-04-15T00:22:31;35.33;33.74;36.88;;
67308;Laerm;57662;51.436;5.978;2023-04-15T00:22:42;35.50;33.60;37.21;;
67308;Laerm;57662;51.436;5.978;2023-04-15T00:22:52;35.21;32.60;37.20;;
67308;Laerm;57662;51.436;5.978;2023-04-15T00:23:02;35.03;33.34;36.69;;
67308;Laerm;57662;51.436;5.978;2023-04-15T00:23:13;35.19;33.45;37.00;;
67308;Laerm;57662;51.436;5.978;2023-04-15T00:23:23;35.07;33.43;36.62;;
67308;Laerm;57662;51.436;5.978;2023-04-15T00:23:33;35.02;33.20;36.58;;
67308;Laerm;57662;51.436;5.978;2023-04-15T00:23:45;34.87;33.20;36.43;;
67308;Laerm;57662;51.436;5.978;2023-04-15T00:23:58;34.83;32.97;36.40;;
67308;Laerm;57662;51.436;5.978;2023-04-15T00:24:09;34.92;32.88;36.41;;
67308;Laerm;57662;51.436;5.978;2023-04-15T00:24:19;34.90;33.01;36.38;;
67308;Laerm;57662;51.436;5.978;2023-04-15T00:24:29;34.89;32.96;36.59;;
67308;Laerm;57662;51.436;5.978;2023-04-15T00:24:40;34.89;32.66;36.62;;
67308;Laerm;57662;51.436;5.978;2023-04-15T00:24:52;34.87;33.15;37.07;;
67308;Laerm;57662;51.436;5.978;2023-04-15T00:25:02;34.89;32.80;36.67;;
67308;Laerm;57662;51.436;5.978;2023-04-15T00:25:13;34.94;33.07;36.45;;
67308;Laerm;57662;51.436;5.978;2023-04-15T00:25:24;34.97;33.24;36.59;;
67308;Laerm;57662;51.436;5.978;2023-04-15T00:25:34;35.07;33.32;36.50;;
67308;Laerm;57662;51.436;5.978;2023-04-15T00:25:44;34.96;33.19;36.71;;
67308;Laerm;57662;51.436;5.978;2023-04-15T00:25:55;34.98;33.13;36.86;;
67308;Laerm;57662;51.436;5.978;2023-04-15T00:26:05;34.97;33.48;36.41;;
67308;Laerm;57662;51.436;5.978;2023-04-15T00:26:16;34.99;33.36;36.50;;
67308;Laerm;57662;51.436;5.978;2023-04-15T00:26:27;35.00;33.62;36.58;;
67308;Laerm;57662;51.436;5.978;2023-04-15T00:26:38;35.09;33.33;37.09;;
67308;Laerm;57662;51.436;5.978;2023-04-15T00:26:48;35.04;33.10;36.75;;
67308;Laerm;57662;51.436;5.978;2023-04-15T00:26:58;35.04;32.71;36.76;;
67308;Laerm;57662;51.436;5.978;2023-04-15T00:27:09;34.89;33.14;36.64;;
67308;Laerm;57662;51.436;5.978;2023-04-15T00:27:19;34.82;33.02;36.28;;
67308;Laerm;57662;51.436;5.978;2023-04-15T00:27:29;35.14;33.18;36.84;;
67308;Laerm;57662;51.436;5.978;2023-04-15T00:27:40;34.94;32.99;36.28;;
67308;Laerm;57662;51.436;5.978;2023-04-15T00:27:51;34.99;33.19;36.77;;
67308;Laerm;57662;51.436;5.978;2023-04-15T00:28:01;35.01;33.39;36.79;;
67308;Laerm;57662;51.436;5.978;2023-04-15T00:28:12;35.07;33.30;36.69;;
67308;Laerm;57662;51.436;5.978;2023-04-15T00:28:26;35.03;33.46;36.59;;
67308;Laerm;57662;51.436;5.978;2023-04-15T00:28:37;35.05;33.54;36.58;;
67308;Laerm;57662;51.436;5.978;2023-04-15T00:28:47;35.05;33.25;37.18;;
67308;Laerm;57662;51.436;5.978;2023-04-15T00:28:57;35.66;33.55;40.87;;
67308;Laerm;57662;51.436;5.978;2023-04-15T00:29:08;39.02;33.62;50.72;;
67308;Laerm;57662;51.436;5.978;2023-04-15T00:29:18;35.20;33.61;36.91;;
67308;Laerm;57662;51.436;5.978;2023-04-15T00:29:28;35.18;33.27;36.79;;
67308;Laerm;57662;51.436;5.978;2023-04-15T00:29:39;35.09;33.24;36.90;;
67308;Laerm;57662;51.436;5.978;2023-04-15T00:29:49;35.01;33.34;37.24;;
67308;Laerm;57662;51.436;5.978;2023-04-15T00:30:00;34.95;33.28;36.58;;
67308;Laerm;57662;51.436;5.978;2023-04-15T00:30:11;35.30;33.94;37.13;;
67308;Laerm;57662;51.436;5.978;2023-04-15T00:30:21;35.51;33.45;38.26;;
67308;Laerm;57662;51.436;5.978;2023-04-15T00:30:32;36.59;34.40;39.99;;
67308;Laerm;57662;51.436;5.978;2023-04-15T00:30:43;40.29;35.45;44.26;;
67308;Laerm;57662;51.436;5.978;2023-04-15T00:30:53;35.29;33.17;37.36;;
67308;Laerm;57662;51.436;5.978;2023-04-15T00:31:03;37.68;33.49;52.49;;
67308;Laerm;57662;51.436;5.978;2023-04-15T00:31:14;38.85;33.13;51.61;;
67308;Laerm;57662;51.436;5.978;2023-04-15T00:31:24;34.95;33.46;36.30;;
67308;Laerm;57662;51.436;5.978;2023-04-15T00:31:34;35.07;33.38;36.26;;
67308;Laerm;57662;51.436;5.978;2023-04-15T00:31:45;35.06;33.04;36.78;;
67308;Laerm;57662;51.436;5.978;2023-04-15T00:31:55;35.07;33.37;36.63;;
67308;Laerm;57662;51.436;5.978;2023-04-15T00:32:06;35.15;33.16;36.82;;
67308;Laerm;57662;51.436;5.978;2023-04-15T00:32:16;35.35;33.25;36.81;;
67308;Laerm;57662;51.436;5.978;2023-04-15T00:32:27;35.40;33.44;36.96;;
67308;Laerm;57662;51.436;5.978;2023-04-15T00:32:38;35.08;33.17;36.81;;
67308;Laerm;57662;51.436;5.978;2023-04-15T00:32:48;35.02;33.22;36.49;;
67308;Laerm;57662;51.436;5.978;2023-04-15T00:32:59;34.89;33.03;36.60;;
67308;Laerm;57662;51.436;5.978;2023-04-15T00:33:11;35.06;33.09;38.75;;
67308;Laerm;57662;51.436;5.978;2023-04-15T00:33:22;35.48;33.53;37.55;;
67308;Laerm;57662;51.436;5.978;2023-04-15T00:33:32;35.48;33.81;37.04;;
67308;Laerm;57662;51.436;5.978;2023-04-15T00:33:43;35.48;33.65;36.74;;
67308;Laerm;57662;51.436;5.978;2023-04-15T00:33:53;36.56;33.47;45.68;;
67308;Laerm;57662;51.436;5.978;2023-04-15T00:34:03;45.36;38.83;49.43;;
67308;Laerm;57662;51.436;5.978;2023-04-15T00:34:14;46.17;41.57;49.81;;
67308;Laerm;57662;51.436;5.978;2023-04-15T00:34:24;46.05;42.30;49.11;;
67308;Laerm;57662;51.436;5.978;2023-04-15T00:34:34;45.88;42.58;48.83;;
67308;Laerm;57662;51.436;5.978;2023-04-15T00:34:44;46.22;43.40;48.69;;
67308;Laerm;57662;51.436;5.978;2023-04-15T00:34:55;67.27;45.41;71.83;;
67308;Laerm;57662;51.436;5.978;2023-04-15T00:35:05;69.54;67.70;72.52;;
67308;Laerm;57662;51.436;5.978;2023-04-15T00:35:15;68.11;53.08;71.57;;
67308;Laerm;57662;51.436;5.978;2023-04-15T00:35:26;46.70;38.25;54.29;;
67308;Laerm;57662;51.436;5.978;2023-04-15T00:35:36;37.59;34.86;41.14;;
67308;Laerm;57662;51.436;5.978;2023-04-15T00:35:47;35.65;33.50;37.74;;
67308;Laerm;57662;51.436;5.978;2023-04-15T00:35:57;35.05;33.41;36.35;;
67308;Laerm;57662;51.436;5.978;2023-04-15T00:36:07;35.00;32.81;36.59;;
67308;Laerm;57662;51.436;5.978;2023-04-15T00:36:18;34.96;33.32;36.55;;
67308;Laerm;57662;51.436;5.978;2023-04-15T00:36:29;34.96;33.11;36.39;;
67308;Laerm;57662;51.436;5.978;2023-04-15T00:36:40;34.94;33.22;38.50;;
67308;Laerm;57662;51.436;5.978;2023-04-15T00:36:51;35.06;32.59;46.42;;
67308;Laerm;57662;51.436;5.978;2023-04-15T00:37:01;34.86;33.01;36.38;;
67308;Laerm;57662;51.436;5.978;2023-04-15T00:37:12;34.82;32.90;36.33;;
67308;Laerm;57662;51.436;5.978;2023-04-15T00:37:22;35.72;33.58;39.17;;
67308;Laerm;57662;51.436;5.978;2023-04-15T00:37:32;34.78;32.92;36.45;;
67308;Laerm;57662;51.436;5.978;2023-04-15T00:37:44;34.78;33.07;36.19;;
67308;Laerm;57662;51.436;5.978;2023-04-15T00:37:54;34.89;33.20;36.93;;
67308;Laerm;57662;51.436;5.978;2023-04-15T00:38:04;34.92;33.16;36.68;;
67308;Laerm;57662;51.436;5.978;2023-04-15T00:38:15;35.01;33.36;36.62;;
67308;Laerm;57662;51.436;5.978;2023-04-15T00:38:25;34.98;32.99;36.52;;
67308;Laerm;57662;51.436;5.978;2023-04-15T00:38:36;35.06;33.41;36.65;;
67308;Laerm;57662;51.436;5.978;2023-04-15T00:38:47;35.34;33.21;37.13;;
67308;Laerm;57662;51.436;5.978;2023-04-15T00:38:57;35.03;33.20;36.57;;
67308;Laerm;57662;51.436;5.978;2023-04-15T00:39:07;34.96;33.02;36.48;;
67308;Laerm;57662;51.436;5.978;2023-04-15T00:39:18;35.00;33.55;36.48;;
67308;Laerm;57662;51.436;5.978;2023-04-15T00:39:28;35.19;33.46;36.80;;
67308;Laerm;57662;51.436;5.978;2023-04-15T00:39:38;35.06;33.82;36.55;;
67308;Laerm;57662;51.436;5.978;2023-04-15T00:39:49;35.01;33.40;36.58;;
67308;Laerm;57662;51.436;5.978;2023-04-15T00:39:59;35.01;33.40;36.46;;
67308;Laerm;57662;51.436;5.978;2023-04-15T00:40:12;34.95;33.20;36.47;;
67308;Laerm;57662;51.436;5.978;2023-04-15T00:40:23;35.38;32.63;37.54;;
67308;Laerm;57662;51.436;5.978;2023-04-15T00:40:33;34.94;33.16;36.62;;
67308;Laerm;57662;51.436;5.978;2023-04-15T00:40:44;34.87;33.24;36.48;;
67308;Laerm;57662;51.436;5.978;2023-04-15T00:40:54;35.06;33.31;36.71;;
67308;Laerm;57662;51.436;5.978;2023-04-15T00:41:05;34.82;33.16;36.47;;
67308;Laerm;57662;51.436;5.978;2023-04-15T00:41:17;34.93;32.95;36.75;;
67308;Laerm;57662;51.436;5.978;2023-04-15T00:41:28;35.25;33.58;36.60;;
67308;Laerm;57662;51.436;5.978;2023-04-15T00:41:38;36.07;34.01;43.54;;
67308;Laerm;57662;51.436;5.978;2023-04-15T00:41:49;39.76;35.42;43.71;;
67308;Laerm;57662;51.436;5.978;2023-04-15T00:41:59;41.40;37.87;45.92;;
67308;Laerm;57662;51.436;5.978;2023-04-15T00:42:09;37.93;34.42;40.64;;
67308;Laerm;57662;51.436;5.978;2023-04-15T00:42:19;35.31;33.59;36.82;;
67308;Laerm;57662;51.436;5.978;2023-04-15T00:42:30;35.09;33.21;36.68;;
67308;Laerm;57662;51.436;5.978;2023-04-15T00:42:41;34.92;33.12;36.71;;
67308;Laerm;57662;51.436;5.978;2023-04-15T00:42:51;34.98;33.48;36.48;;
67308;Laerm;57662;51.436;5.978;2023-04-15T00:43:01;34.90;33.46;36.33;;
67308;Laerm;57662;51.436;5.978;2023-04-15T00:43:13;34.82;32.79;36.41;;
67308;Laerm;57662;51.436;5.978;2023-04-15T00:43:23;34.85;33.33;36.65;;
67308;Laerm;57662;51.436;5.978;2023-04-15T00:43:35;34.88;33.26;37.00;;
67308;Laerm;57662;51.436;5.978;2023-04-15T00:43:45;34.82;33.27;36.43;;
67308;Laerm;57662;51.436;5.978;2023-04-15T00:43:55;34.84;33.04;36.55;;
67308;Laerm;57662;51.436;5.978;2023-04-15T00:44:06;34.81;33.14;36.54;;
67308;Laerm;57662;51.436;5.978;2023-04-15T00:44:16;34.86;32.81;37.49;;
67308;Laerm;57662;51.436;5.978;2023-04-15T00:44:27;34.85;33.04;36.56;;
67308;Laerm;57662;51.436;5.978;2023-04-15T00:44:38;34.77;33.14;36.60;;
67308;Laerm;57662;51.436;5.978;2023-04-15T00:44:48;34.68;32.95;36.39;;
67308;Laerm;57662;51.436;5.978;2023-04-15T00:44:59;34.87;33.06;36.12;;
67308;Laerm;57662;51.436;5.978;2023-04-15T00:45:09;34.96;33.23;36.48;;
67308;Laerm;57662;51.436;5.978;2023-04-15T00:45:19;34.99;33.13;36.59;;
67308;Laerm;57662;51.436;5.978;2023-04-15T00:45:30;34.95;33.08;36.55;;
67308;Laerm;57662;51.436;5.978;2023-04-15T00:45:40;34.75;32.81;36.20;;
67308;Laerm;57662;51.436;5.978;2023-04-15T00:45:51;34.69;32.96;35.91;;
67308;Laerm;57662;51.436;5.978;2023-04-15T00:46:03;34.67;32.87;36.26;;
67308;Laerm;57662;51.436;5.978;2023-04-15T00:46:13;34.79;33.19;36.42;;
67308;Laerm;57662;51.436;5.978;2023-04-15T00:46:25;34.72;32.78;35.87;;
67308;Laerm;57662;51.436;5.978;2023-04-15T00:46:37;34.78;33.06;36.29;;
67308;Laerm;57662;51.436;5.978;2023-04-15T00:46:52;34.78;33.08;36.19;;
67308;Laerm;57662;51.436;5.978;2023-04-15T00:47:03;34.84;33.16;36.54;;
67308;Laerm;57662;51.436;5.978;2023-04-15T00:47:14;35.02;33.29;36.84;;
67308;Laerm;57662;51.436;5.978;2023-04-15T00:47:25;35.18;33.22;37.81;;
67308;Laerm;57662;51.436;5.978;2023-04-15T00:47:36;35.91;33.74;38.61;;
67308;Laerm;57662;51.436;5.978;2023-04-15T00:47:48;36.43;33.81;39.96;;
67308;Laerm;57662;51.436;5.978;2023-04-15T00:47:58;37.47;34.11;41.71;;
67308;Laerm;57662;51.436;5.978;2023-04-15T00:48:08;36.84;34.04;41.09;;
67308;Laerm;57662;51.436;5.978;2023-04-15T00:48:20;37.12;33.48;40.75;;
67308;Laerm;57662;51.436;5.978;2023-04-15T00:48:30;36.30;33.38;39.34;;
67308;Laerm;57662;51.436;5.978;2023-04-15T00:48:41;36.57;34.15;41.29;;
67308;Laerm;57662;51.436;5.978;2023-04-15T00:48:51;36.16;33.38;39.26;;
67308;Laerm;57662;51.436;5.978;2023-04-15T00:49:04;35.48;33.62;37.60;;
67308;Laerm;57662;51.436;5.978;2023-04-15T00:49:15;35.65;32.70;39.44;;
67308;Laerm;57662;51.436;5.978;2023-04-15T00:49:26;35.16;33.30;37.65;;
67308;Laerm;57662;51.436;5.978;2023-04-15T00:49:37;38.23;33.33;45.48;;
67308;Laerm;57662;51.436;5.978;2023-04-15T00:49:47;44.66;40.86;46.71;;
67308;Laerm;57662;51.436;5.978;2023-04-15T00:49:58;46.54;40.85;50.58;;
67308;Laerm;57662;51.436;5.978;2023-04-15T00:50:08;46.74;41.22;50.45;;
67308;Laerm;57662;51.436;5.978;2023-04-15T00:50:19;53.01;41.25;64.57;;
67308;Laerm;57662;51.436;5.978;2023-04-15T00:50:29;69.87;63.65;72.02;;
67308;Laerm;57662;51.436;5.978;2023-04-15T00:50:39;67.09;49.28;73.31;;
67308;Laerm;57662;51.436;5.978;2023-04-15T00:50:50;48.34;45.23;51.26;;
67308;Laerm;57662;51.436;5.978;2023-04-15T00:51:00;47.05;43.86;50.25;;
67308;Laerm;57662;51.436;5.978;2023-04-15T00:51:10;45.13;40.20;49.72;;
67308;Laerm;57662;51.436;5.978;2023-04-15T00:51:21;42.40;38.83;44.47;;
67308;Laerm;57662;51.436;5.978;2023-04-15T00:51:31;41.11;36.53;44.49;;
67308;Laerm;57662;51.436;5.978;2023-04-15T00:51:42;36.75;34.90;40.35;;
67308;Laerm;57662;51.436;5.978;2023-04-15T00:51:53;36.29;34.67;37.80;;
67308;Laerm;57662;51.436;5.978;2023-04-15T00:52:04;37.54;35.35;40.74;;
67308;Laerm;57662;51.436;5.978;2023-04-15T00:52:14;36.43;34.34;38.58;;
67308;Laerm;57662;51.436;5.978;2023-04-15T00:52:24;36.06;34.51;37.80;;
67308;Laerm;57662;51.436;5.978;2023-04-15T00:52:35;35.87;34.10;37.48;;
67308;Laerm;57662;51.436;5.978;2023-04-15T00:52:45;39.60;35.51;45.09;;
67308;Laerm;57662;51.436;5.978;2023-04-15T00:52:55;38.72;34.07;44.07;;
67308;Laerm;57662;51.436;5.978;2023-04-15T00:53:06;35.22;33.64;36.93;;
67308;Laerm;57662;51.436;5.978;2023-04-15T00:53:16;35.17;33.72;36.63;;
67308;Laerm;57662;51.436;5.978;2023-04-15T00:53:26;35.12;33.30;37.14;;
67308;Laerm;57662;51.436;5.978;2023-04-15T00:53:36;35.09;33.04;36.45;;
67308;Laerm;57662;51.436;5.978;2023-04-15T00:53:47;35.32;33.55;37.20;;
67308;Laerm;57662;51.436;5.978;2023-04-15T00:53:57;35.09;33.25;36.98;;
67308;Laerm;57662;51.436;5.978;2023-04-15T00:54:07;35.10;32.51;36.94;;
67308;Laerm;57662;51.436;5.978;2023-04-15T00:54:17;35.05;33.35;36.54;;
67308;Laerm;57662;51.436;5.978;2023-04-15T00:54:28;35.03;33.13;36.86;;
67308;Laerm;57662;51.436;5.978;2023-04-15T00:54:38;34.87;32.67;36.46;;
67308;Laerm;57662;51.436;5.978;2023-04-15T00:54:48;34.80;32.73;36.52;;
67308;Laerm;57662;51.436;5.978;2023-04-15T00:55:00;34.85;32.67;36.73;;
67308;Laerm;57662;51.436;5.978;2023-04-15T00:55:11;34.78;32.92;36.35;;
67308;Laerm;57662;51.436;5.978;2023-04-15T00:55:21;34.80;33.25;36.33;;
67308;Laerm;57662;51.436;5.978;2023-04-15T00:55:32;34.81;32.27;36.46;;
67308;Laerm;57662;51.436;5.978;2023-04-15T00:55:42;34.93;33.37;36.47;;
67308;Laerm;57662;51.436;5.978;2023-04-15T00:55:52;35.01;33.42;36.31;;
67308;Laerm;57662;51.436;5.978;2023-04-15T00:56:03;34.75;33.15;36.30;;
67308;Laerm;57662;51.436;5.978;2023-04-15T00:56:13;34.71;33.06;36.53;;
67308;Laerm;57662;51.436;5.978;2023-04-15T00:56:24;34.89;33.29;36.30;;
67308;Laerm;57662;51.436;5.978;2023-04-15T00:56:34;34.82;32.99;36.36;;
67308;Laerm;57662;51.436;5.978;2023-04-15T00:56:45;34.78;32.69;36.44;;
67308;Laerm;57662;51.436;5.978;2023-04-15T00:56:55;34.86;33.32;36.43;;
67308;Laerm;57662;51.436;5.978;2023-04-15T00:57:06;34.75;33.20;36.30;;
67308;Laerm;57662;51.436;5.978;2023-04-15T00:57:17;34.76;32.81;37.35;;
67308;Laerm;57662;51.436;5.978;2023-04-15T00:57:28;35.31;32.96;37.39;;
67308;Laerm;57662;51.436;5.978;2023-04-15T00:57:38;39.01;34.16;44.71;;
67308;Laerm;57662;51.436;5.978;2023-04-15T00:57:49;40.18;35.28;43.24;;
67308;Laerm;57662;51.436;5.978;2023-04-15T00:57:59;35.97;33.47;38.46;;
67308;Laerm;57662;51.436;5.978;2023-04-15T00:58:09;34.88;33.41;36.18;;
67308;Laerm;57662;51.436;5.978;2023-04-15T00:58:20;38.38;33.71;43.72;;
67308;Laerm;57662;51.436;5.978;2023-04-15T00:58:30;35.91;33.84;38.33;;
67308;Laerm;57662;51.436;5.978;2023-04-15T00:58:41;34.97;32.96;36.33;;
67308;Laerm;57662;51.436;5.978;2023-04-15T00:58:51;34.89;33.30;36.52;;
67308;Laerm;57662;51.436;5.978;2023-04-15T00:59:01;34.81;33.11;36.44;;
67308;Laerm;57662;51.436;5.978;2023-04-15T00:59:12;38.24;32.68;46.14;;
67308;Laerm;57662;51.436;5.978;2023-04-15T00:59:23;45.16;40.25;48.19;;
67308;Laerm;57662;51.436;5.978;2023-04-15T00:59:34;44.78;40.09;47.45;;
67308;Laerm;57662;51.436;5.978;2023-04-15T00:59:44;47.69;42.47;50.68;;
67308;Laerm;57662;51.436;5.978;2023-04-15T00:59:55;66.40;43.35;74.57;;